createdAt,value
2022-10-11T00:01:43.456Z,100853.72
2022-10-11T00:04:46.327Z,100853.22
2022-10-11T00:07:50.197Z,100853.31
2022-10-11T00:11:00.243Z,100857.41
2022-10-11T00:14:02.741Z,100870.72
2022-10-11T00:17:07.744Z,100875.56
2022-10-11T00:20:11.081Z,100873.41
2022-10-11T00:23:14.887Z,100880.41
2022-10-11T00:26:17.544Z,100887.13
2022-10-11T00:29:19.989Z,100886.13
2022-10-11T00:32:22.829Z,100905.97
2022-10-11T00:35:25.701Z,100913.88
2022-10-11T00:38:31.897Z,100909.75
2022-10-11T00:41:34.748Z,100910.00
2022-10-11T00:44:37.223Z,100916.69
2022-10-11T00:47:41.980Z,100924.88
2022-10-11T00:50:44.605Z,100932.25
2022-10-11T00:53:50.465Z,100937.50
2022-10-11T00:57:02.436Z,100942.88
2022-10-11T01:00:08.403Z,100946.66
2022-10-11T01:03:10.855Z,100947.88
2022-10-11T01:06:13.364Z,100947.25
2022-10-11T01:09:18.542Z,100950.91
2022-10-11T01:12:24.193Z,100948.13
2022-10-11T01:15:36.496Z,100951.19
2022-10-11T01:18:49.505Z,100949.69
2022-10-11T01:21:58.602Z,100956.38
2022-10-11T01:25:19.470Z,100967.84
2022-10-11T01:28:40.478Z,100964.19
2022-10-11T01:31:50.293Z,100967.94
2022-10-11T01:34:58.623Z,100975.06
2022-10-11T01:38:08.692Z,100960.22
2022-10-11T01:41:16.512Z,100962.16
2022-10-11T01:44:20.387Z,100972.91
2022-10-11T01:47:26.162Z,100971.72
2022-10-11T01:50:37.841Z,100981.09
2022-10-11T01:54:05.283Z,100977.91
2022-10-11T01:57:46.892Z,100983.47
2022-10-11T02:00:55.689Z,100986.31
2022-10-11T02:04:08.063Z,100992.19
2022-10-11T02:07:20.524Z,100993.97
2022-10-11T02:10:29.847Z,100993.72
2022-10-11T02:13:36.737Z,100996.97
2022-10-11T02:16:43.809Z,100999.53
2022-10-11T02:19:53.184Z,101002.44
2022-10-11T02:23:03.535Z,101010.81
2022-10-11T02:26:08.055Z,101014.09
2022-10-11T02:29:13.273Z,101012.56
2022-10-11T02:32:18.378Z,101020.91
2022-10-11T02:35:26.577Z,101024.34
2022-10-11T02:38:35.672Z,101030.66
2022-10-11T02:41:40.809Z,101032.19
2022-10-11T02:44:46.322Z,101037.78
2022-10-11T02:47:49.316Z,101031.03
2022-10-11T02:50:55.724Z,101037.16
2022-10-11T02:53:58.298Z,101034.19
2022-10-11T02:57:00.853Z,101037.31
2022-10-11T03:00:04.688Z,101030.75
2022-10-11T03:03:07.233Z,101047.84
2022-10-11T03:06:11.072Z,101045.53
2022-10-11T03:09:13.544Z,101052.56
2022-10-11T03:12:16.023Z,101056.91
2022-10-11T03:15:18.524Z,101059.03
2022-10-11T03:18:21.324Z,101071.03
2022-10-11T03:21:25.707Z,101074.69
2022-10-11T03:24:28.213Z,101077.47
2022-10-11T03:27:30.701Z,101079.16
2022-10-11T03:30:33.292Z,101077.31
2022-10-11T03:33:35.804Z,101078.78
2022-10-11T03:36:39.661Z,101075.19
2022-10-11T03:39:42.961Z,101084.91
2022-10-11T03:42:45.440Z,101083.69
2022-10-11T03:45:47.986Z,101089.75
2022-10-11T03:48:50.629Z,101092.59
2022-10-11T03:51:54.485Z,101109.78
2022-10-11T03:54:56.982Z,101107.63
2022-10-11T03:57:59.451Z,101109.47
2022-10-11T04:01:01.957Z,101116.50
2022-10-11T04:04:04.685Z,101114.69
2022-10-11T04:07:09.228Z,101128.56
2022-10-11T04:10:11.721Z,101115.31
2022-10-11T04:13:14.195Z,101126.13
2022-10-11T04:16:16.755Z,101131.22
2022-10-11T04:19:19.320Z,101139.31
2022-10-11T04:22:23.142Z,101140.13
2022-10-11T04:25:25.970Z,101138.13
2022-10-11T04:28:28.533Z,101139.22
2022-10-11T04:31:31.239Z,101145.44
2022-10-11T04:34:33.775Z,101146.22
2022-10-11T04:37:37.649Z,101151.97
2022-10-11T04:40:40.139Z,101153.88
2022-10-11T04:43:42.942Z,101163.28
2022-10-11T04:46:45.523Z,101163.72
2022-10-11T04:49:48.042Z,101172.69
2022-10-11T04:52:51.838Z,101181.03
2022-10-11T04:56:00.913Z,101183.53
2022-10-11T04:59:03.692Z,101183.53
2022-10-11T05:02:06.214Z,101182.53
2022-10-11T05:05:09.736Z,101188.47
2022-10-11T05:08:13.818Z,101186.66
2022-10-11T05:11:17.991Z,101192.75
2022-10-11T05:14:20.482Z,101203.47
2022-10-11T05:17:23.005Z,101201.22
2022-10-11T05:20:25.804Z,101205.06
2022-10-11T05:23:30.287Z,101209.25
2022-10-11T05:26:32.872Z,101209.88
2022-10-11T05:29:35.365Z,101212.09
2022-10-11T05:32:39.650Z,101221.13
2022-10-11T05:35:42.503Z,101222.94
2022-10-11T05:38:46.376Z,101226.25
2022-10-11T05:41:48.846Z,101229.97
2022-10-11T05:44:51.343Z,101235.22
2022-10-11T05:47:53.829Z,101244.81
2022-10-11T05:51:02.106Z,101246.66
2022-10-11T05:54:05.971Z,101251.22
2022-10-11T05:57:08.447Z,101257.31
2022-10-11T06:00:12.148Z,101261.81
2022-10-11T06:03:15.128Z,101271.22
2022-10-11T06:06:18.083Z,101267.09
2022-10-11T06:09:21.917Z,101276.91
2022-10-11T06:12:24.428Z,101279.06
2022-10-11T06:15:27.094Z,101281.34
2022-10-11T06:18:29.576Z,101286.06
2022-10-11T06:21:32.864Z,101287.28
2022-10-11T06:24:36.683Z,101293.44
2022-10-11T06:27:39.282Z,101289.00
2022-10-11T06:30:41.761Z,101303.16
2022-10-11T06:33:44.245Z,101309.16
2022-10-11T06:36:46.719Z,101306.88
2022-10-11T06:39:50.577Z,101313.06
2022-10-11T06:42:53.036Z,101320.47
2022-10-11T06:46:00.277Z,101321.91
2022-10-11T06:49:02.872Z,101322.22
2022-10-11T06:52:05.632Z,101319.63
2022-10-11T06:55:09.945Z,101335.25
2022-10-11T06:58:12.428Z,101336.56
2022-10-11T07:01:18.951Z,101337.06
2022-10-11T07:04:21.602Z,101341.09
2022-10-11T07:07:24.809Z,101351.09
2022-10-11T07:10:28.716Z,101360.72
2022-10-11T07:13:31.243Z,101356.69
2022-10-11T07:16:34.353Z,101361.59
2022-10-11T07:19:36.853Z,101363.53
2022-10-11T07:22:39.471Z,101370.47
2022-10-11T07:25:43.468Z,101377.91
2022-10-11T07:28:46.087Z,101380.84
2022-10-11T07:31:48.668Z,101379.09
2022-10-11T07:34:51.335Z,101381.44
2022-10-11T07:37:53.820Z,101384.84
2022-10-11T07:40:57.773Z,101390.00
2022-10-11T07:44:01.080Z,101386.16
2022-10-11T07:47:06.651Z,101387.28
2022-10-11T07:50:11.483Z,101390.91
2022-10-11T07:53:13.964Z,101404.09
2022-10-11T07:56:20.209Z,101404.25
2022-10-11T07:59:22.705Z,101404.44
2022-10-11T08:02:25.185Z,101419.13
2022-10-11T08:05:27.685Z,101413.69
2022-10-11T08:08:31.104Z,101414.00
2022-10-11T08:11:37.247Z,101408.94
2022-10-11T08:14:41.449Z,101415.66
2022-10-11T08:17:43.928Z,101418.59
2022-10-11T08:20:46.984Z,101425.72
2022-10-11T08:23:49.488Z,101419.53
2022-10-11T08:26:53.631Z,101430.13
2022-10-11T08:29:56.135Z,101433.13
2022-10-11T08:32:58.645Z,101430.41
2022-10-11T08:36:05.629Z,101431.16
2022-10-11T08:39:09.577Z,101435.84
2022-10-11T08:42:19.678Z,101434.91
2022-10-11T08:45:29.681Z,101442.47
2022-10-11T08:48:36.306Z,101439.63
2022-10-11T08:51:43.531Z,101446.09
2022-10-11T08:54:50.940Z,101449.91
2022-10-11T08:57:57.104Z,101445.38
2022-10-11T09:01:00.262Z,101458.03
2022-10-11T09:04:03.672Z,101460.72
2022-10-11T09:07:11.332Z,101458.34
2022-10-11T09:10:50.831Z,101469.69
2022-10-11T09:14:19.893Z,101468.84
2022-10-11T09:17:35.800Z,101455.59
2022-10-11T09:20:49.128Z,101452.53
2022-10-11T09:24:08.656Z,101474.22
2022-10-11T09:27:25.921Z,101479.72
2022-10-11T09:30:48.657Z,101478.25
2022-10-11T09:33:52.793Z,101484.88
2022-10-11T09:37:04.454Z,101488.03
2022-10-11T09:40:22.951Z,101487.59
2022-10-11T09:43:26.051Z,101478.25
2022-10-11T09:46:38.220Z,101482.84
2022-10-11T09:49:43.769Z,101474.31
2022-10-11T09:52:50.512Z,101465.66
2022-10-11T09:55:54.963Z,101463.09
2022-10-11T09:59:20.668Z,101468.91
2022-10-11T10:02:25.527Z,101473.41
2022-10-11T10:05:29.494Z,101479.47
2022-10-11T10:08:32.096Z,101492.91
2022-10-11T10:11:37.749Z,101496.19
2022-10-11T10:14:42.337Z,101496.38
2022-10-11T10:17:51.834Z,101503.59
2022-10-11T10:20:56.660Z,101494.13
2022-10-11T10:24:04.125Z,101496.44
2022-10-11T10:27:09.541Z,101494.28
2022-10-11T10:30:15.962Z,101505.59
2022-10-11T10:33:21.064Z,101508.00
2022-10-11T10:36:28.044Z,101504.03
2022-10-11T10:39:37.825Z,101517.50
2022-10-11T10:42:40.496Z,101514.69
2022-10-11T10:45:58.737Z,101508.00
2022-10-11T10:52:46.630Z,101512.94
2022-10-11T10:55:58.595Z,101506.44
2022-10-11T10:59:20.540Z,101507.69
2022-10-11T11:02:41.257Z,101510.81
2022-10-11T11:05:49.551Z,101498.44
2022-10-11T11:09:03.798Z,101499.41
2022-10-11T11:12:18.321Z,101507.41
2022-10-11T11:15:32.007Z,101509.44
2022-10-11T11:18:43.189Z,101510.13
2022-10-11T11:21:57.100Z,101502.50
2022-10-11T11:25:08.885Z,101509.72
2022-10-11T11:28:23.154Z,101503.81
2022-10-11T11:31:41.447Z,101503.47
2022-10-11T11:34:47.939Z,101513.00
2022-10-11T11:38:00.154Z,101520.97
2022-10-11T11:41:09.632Z,101519.25
2022-10-11T11:44:16.574Z,101527.72
2022-10-11T11:47:24.470Z,101527.06
2022-10-11T11:50:28.644Z,101515.63
2022-10-11T11:53:49.451Z,101516.13
2022-10-11T11:57:00.694Z,101524.66
2022-10-11T12:00:07.075Z,101522.09
2022-10-11T12:03:16.202Z,101511.31
2022-10-11T12:06:23.746Z,101511.94
2022-10-11T12:09:28.380Z,101514.03
2022-10-11T12:12:34.339Z,101511.72
2022-10-11T12:15:37.836Z,101517.53
2022-10-11T12:18:52.754Z,101517.50
2022-10-11T12:22:37.779Z,101523.56
2022-10-11T12:25:43.949Z,101526.44
2022-10-11T12:29:05.347Z,101515.94
2022-10-11T12:32:53.191Z,101517.38
2022-10-11T12:36:05.704Z,101515.19
2022-10-11T12:39:43.814Z,101514.84
2022-10-11T12:43:23.519Z,101523.81
2022-10-11T12:46:42.987Z,101520.09
2022-10-11T12:49:59.855Z,101519.06
2022-10-11T12:53:19.781Z,101522.25
2022-10-11T12:56:28.650Z,101528.56
2022-10-11T12:59:33.146Z,101522.09
2022-10-11T13:02:42.566Z,101513.34
2022-10-11T13:05:50.990Z,101523.94
2022-10-11T13:09:00.879Z,101528.53
2022-10-11T13:12:06.386Z,101524.31
2022-10-11T13:15:15.928Z,101523.44
2022-10-11T13:18:19.509Z,101530.63
2022-10-11T13:21:28.433Z,101533.34
2022-10-11T13:24:37.118Z,101530.13
2022-10-11T13:27:39.666Z,101530.91
2022-10-11T13:30:47.766Z,101530.50
2022-10-11T13:33:54.777Z,101522.34
2022-10-11T13:36:58.478Z,101515.59
2022-10-11T13:40:01.087Z,101519.97
2022-10-11T13:43:06.539Z,101523.78
2022-10-11T13:46:20.589Z,101525.75
2022-10-11T13:49:29.110Z,101517.66
2022-10-11T13:52:31.680Z,101515.53
2022-10-11T13:55:36.340Z,101519.06
2022-10-11T13:58:45.190Z,101514.22
2022-10-11T14:01:50.235Z,101519.78
2022-10-11T14:04:53.518Z,101518.78
2022-10-11T14:07:56.940Z,101513.63
2022-10-11T14:11:05.899Z,101517.22
2022-10-11T14:14:41.811Z,101518.66
2022-10-11T14:17:46.889Z,101517.19
2022-10-11T14:20:49.376Z,101504.91
2022-10-11T14:23:53.227Z,101503.16
2022-10-11T14:26:57.597Z,101510.41
2022-10-11T14:30:24.103Z,101512.25
2022-10-11T14:33:24.048Z,101506.06
2022-10-11T14:36:26.634Z,101506.06
2022-10-11T14:39:31.837Z,101512.41
2022-10-11T14:42:34.309Z,101509.69
2022-10-11T14:45:36.920Z,101505.22
2022-10-11T14:48:54.994Z,101504.50
2022-10-11T14:51:59.932Z,101501.06
2022-10-11T14:55:02.483Z,101507.69
2022-10-11T14:58:05.490Z,101510.69
2022-10-11T15:01:08.320Z,101507.91
2022-10-11T15:04:12.173Z,101505.75
2022-10-11T15:07:14.671Z,101505.91
2022-10-11T15:10:23.198Z,101504.56
2022-10-11T15:13:25.676Z,101505.38
2022-10-11T15:16:28.175Z,101511.53
2022-10-11T15:19:32.017Z,101507.69
2022-10-11T15:22:34.514Z,101497.56
2022-10-11T15:25:38.625Z,101495.09
2022-10-11T15:28:41.312Z,101497.19
2022-10-11T15:31:43.875Z,101499.75
2022-10-11T15:34:47.706Z,101492.28
2022-10-11T15:37:53.424Z,101502.91
2022-10-11T15:40:56.254Z,101496.97
2022-10-11T15:43:58.779Z,101500.13
2022-10-11T15:47:01.275Z,101500.97
2022-10-11T15:50:11.924Z,101494.75
2022-10-11T15:53:17.294Z,101501.22
2022-10-11T15:56:19.824Z,101501.22
2022-10-11T15:59:22.323Z,101496.94
2022-10-11T16:02:29.933Z,101501.09
2022-10-11T16:05:33.877Z,101495.47
2022-10-11T16:08:36.913Z,101500.63
2022-10-11T16:11:39.438Z,101500.28
2022-10-11T16:14:46.973Z,101505.31
2022-10-11T16:17:50.209Z,101500.91
2022-10-11T16:20:54.156Z,101501.34
2022-10-11T16:23:56.635Z,101504.44
2022-10-11T16:26:59.225Z,101502.84
2022-10-11T16:30:02.056Z,101506.19
2022-10-11T16:33:04.641Z,101508.28
2022-10-11T16:36:23.243Z,101512.25
2022-10-11T16:39:25.817Z,101506.91
2022-10-11T16:42:28.589Z,101509.81
2022-10-11T16:45:31.093Z,101503.13
2022-10-11T16:48:33.578Z,101508.75
2022-10-11T16:51:37.411Z,101503.91
2022-10-11T16:54:39.909Z,101502.06
2022-10-11T16:57:42.453Z,101498.38
2022-10-11T17:00:45.098Z,101504.16
2022-10-11T17:03:47.650Z,101504.16
2022-10-11T17:06:54.172Z,101506.34
2022-10-11T17:09:57.957Z,101505.22
2022-10-11T17:13:00.440Z,101506.75
2022-10-11T17:16:03.426Z,101510.06
2022-10-11T17:19:06.338Z,101515.44
2022-10-11T17:22:11.039Z,101519.28
2022-10-11T17:25:13.554Z,101513.53
2022-10-11T17:28:16.060Z,101513.72
2022-10-11T17:31:18.708Z,101513.53
2022-10-11T17:34:21.187Z,101509.47
2022-10-11T17:37:25.123Z,101513.25
2022-10-11T17:40:28.228Z,101520.66
2022-10-11T17:43:31.054Z,101522.34
2022-10-11T17:46:33.644Z,101517.13
2022-10-11T17:49:36.133Z,101523.44
2022-10-11T17:52:39.946Z,101528.97
2022-10-11T17:55:43.017Z,101524.56
2022-10-11T17:58:45.548Z,101524.50
2022-10-11T18:01:48.721Z,101516.44
2022-10-11T18:04:51.208Z,101520.41
2022-10-11T18:07:55.068Z,101525.63
2022-10-11T18:10:57.599Z,101527.75
2022-10-11T18:14:00.354Z,101523.84
2022-10-11T18:17:03.277Z,101518.78
2022-10-11T18:20:06.548Z,101521.38
2022-10-11T18:23:10.416Z,101524.66
2022-10-11T18:26:14.892Z,101522.22
2022-10-11T18:29:17.412Z,101522.56
2022-10-11T18:32:20.879Z,101527.63
2022-10-11T18:35:23.375Z,101518.59
2022-10-11T18:38:27.239Z,101526.72
2022-10-11T18:41:31.990Z,101523.22
2022-10-11T18:44:34.595Z,101521.69
2022-10-11T18:47:37.094Z,101528.00
2022-10-11T18:50:39.590Z,101532.97
2022-10-11T18:53:43.473Z,101523.81
2022-10-11T18:56:46.479Z,101525.50
2022-10-11T18:59:49.081Z,101523.34
2022-10-11T19:02:51.546Z,101522.47
2022-10-11T19:05:54.038Z,101523.47
2022-10-11T19:09:02.812Z,101524.53
2022-10-11T19:12:05.451Z,101524.25
2022-10-11T19:15:08.730Z,101521.72
2022-10-11T19:18:13.404Z,101517.66
2022-10-11T19:21:16.790Z,101516.47
2022-10-11T19:24:23.379Z,101520.00
2022-10-11T19:27:25.979Z,101519.75
2022-10-11T19:30:28.488Z,101527.91
2022-10-11T19:33:32.093Z,101529.19
2022-10-11T19:36:36.835Z,101529.31
2022-10-11T19:39:41.440Z,101523.06
2022-10-11T19:42:43.925Z,101516.47
2022-10-11T19:45:46.408Z,101531.63
2022-10-11T19:48:50.047Z,101533.91
2022-10-11T19:51:53.617Z,101528.59
2022-10-11T19:54:57.435Z,101538.09
2022-10-11T19:58:02.382Z,101534.47
2022-10-11T20:01:11.957Z,101536.13
2022-10-11T20:04:33.152Z,101532.41
2022-10-11T20:07:36.933Z,101530.78
2022-10-11T20:10:40.879Z,101541.03
2022-10-11T20:13:43.488Z,101538.94
2022-10-11T20:16:45.976Z,101529.69
2022-10-11T20:19:48.673Z,101534.31
2022-10-11T20:22:51.204Z,101533.38
2022-10-11T20:26:02.291Z,101540.19
2022-10-11T20:29:04.794Z,101532.81
2022-10-11T20:32:07.285Z,101531.84
2022-10-11T20:35:10.252Z,101540.03
2022-10-11T20:38:12.717Z,101539.66
2022-10-11T20:41:18.886Z,101548.78
2022-10-11T20:44:21.454Z,101533.66
2022-10-11T20:47:23.941Z,101537.56
2022-10-11T20:50:26.429Z,101548.06
2022-10-11T20:53:29.516Z,101549.69
2022-10-11T20:56:33.733Z,101543.34
2022-10-11T20:59:36.248Z,101544.72
2022-10-11T21:02:38.707Z,101545.63
2022-10-11T21:05:41.236Z,101543.19
2022-10-11T21:08:43.773Z,101543.81
2022-10-11T21:11:47.653Z,101548.34
2022-10-11T21:14:50.130Z,101547.34
2022-10-11T21:17:54.325Z,101554.69
2022-10-11T21:20:56.808Z,101558.22
2022-10-11T21:24:01.375Z,101549.88
2022-10-11T21:27:05.180Z,101558.44
2022-10-11T21:30:08.729Z,101554.50
2022-10-11T21:33:11.199Z,101561.69
2022-10-11T21:36:15.917Z,101562.91
2022-10-11T21:39:18.425Z,101560.38
2022-10-11T21:42:25.884Z,101565.09
2022-10-11T21:45:31.155Z,101561.78
2022-10-11T21:48:33.627Z,101552.91
2022-10-11T21:51:36.493Z,101548.72
2022-10-11T21:54:39.019Z,101552.38
2022-10-11T21:57:43.603Z,101561.44
2022-10-11T22:00:47.929Z,101558.09
2022-10-11T22:03:50.996Z,101555.91
2022-10-11T22:06:53.465Z,101557.25
2022-10-11T22:09:55.987Z,101554.44
2022-10-11T22:12:59.793Z,101556.97
2022-10-11T22:16:03.500Z,101559.75
2022-10-11T22:19:06.005Z,101549.28
2022-10-11T22:22:08.676Z,101564.69
2022-10-11T22:25:11.202Z,101553.34
2022-10-11T22:28:15.162Z,101558.34
2022-10-11T22:31:19.391Z,101561.06
2022-10-11T22:34:21.892Z,101556.63
2022-10-11T22:37:24.365Z,101553.81
2022-10-11T22:40:26.934Z,101557.25
2022-10-11T22:43:30.723Z,101562.09
2022-10-11T22:46:33.826Z,101559.69
2022-10-11T22:49:36.313Z,101558.06
2022-10-11T22:52:39.907Z,101564.44
2022-10-11T22:55:42.888Z,101554.50
2022-10-11T22:58:46.692Z,101557.94
2022-10-11T23:01:49.180Z,101551.53
2022-10-11T23:04:53.779Z,101554.41
2022-10-11T23:07:56.241Z,101559.97
2022-10-11T23:11:03.782Z,101553.06
2022-10-11T23:14:07.630Z,101547.88
2022-10-11T23:17:10.123Z,101552.69
2022-10-11T23:20:12.802Z,101551.84
2022-10-11T23:23:15.340Z,101550.66
2022-10-11T23:26:17.920Z,101544.25
2022-10-11T23:29:21.724Z,101550.75
2022-10-11T23:32:24.220Z,101548.09
2022-10-11T23:35:26.745Z,101552.38
2022-10-11T23:38:29.439Z,101556.16
2022-10-11T23:41:32.283Z,101551.66
2022-10-11T23:44:36.103Z,101554.44
2022-10-11T23:47:38.901Z,101558.19
2022-10-11T23:50:41.665Z,101555.81
2022-10-11T23:53:44.148Z,101554.97
2022-10-11T23:56:46.606Z,101562.47
2022-10-11T23:59:50.378Z,101565.97
